createdAt,value
2017-11-05T00:01:53.307Z,78.93
2017-11-05T00:04:20.803Z,78.98
2017-11-05T00:06:48.331Z,78.63
2017-11-05T00:09:15.898Z,78.60
2017-11-05T00:11:43.462Z,79.01
2017-11-05T00:14:11.159Z,78.99
2017-11-05T00:16:38.658Z,78.93
2017-11-05T00:19:06.141Z,78.83
2017-11-05T00:21:33.624Z,79.09
2017-11-05T00:24:01.167Z,78.52
2017-11-05T00:26:28.710Z,78.74
2017-11-05T00:28:56.202Z,78.91
2017-11-05T00:31:23.705Z,78.77
2017-11-05T00:33:51.274Z,78.64
2017-11-05T00:36:18.869Z,78.59
2017-11-05T00:38:46.401Z,78.65
2017-11-05T00:41:14.257Z,78.74
2017-11-05T00:43:41.763Z,78.85
2017-11-05T00:46:09.258Z,78.73
2017-11-05T00:48:36.740Z,78.83
2017-11-05T00:51:04.236Z,78.83
2017-11-05T00:53:31.745Z,79.11
2017-11-05T00:55:59.236Z,78.90
2017-11-05T00:58:26.727Z,78.75
2017-11-05T01:00:54.204Z,79.09
2017-11-05T01:03:21.696Z,79.11
2017-11-05T01:05:49.178Z,78.73
2017-11-05T01:08:16.767Z,78.89
2017-11-05T01:10:44.268Z,78.63
2017-11-05T01:13:11.780Z,78.64
2017-11-05T01:15:39.292Z,78.42
2017-11-05T01:18:06.810Z,78.37
2017-11-05T01:20:34.297Z,78.61
2017-11-05T01:23:01.763Z,78.66
2017-11-05T01:25:29.269Z,78.65
2017-11-05T01:27:56.758Z,78.39
2017-11-05T01:30:24.216Z,78.51
2017-11-05T01:32:51.700Z,78.64
2017-11-05T01:35:19.556Z,78.42
2017-11-05T01:37:47.030Z,78.38
2017-11-05T01:40:14.532Z,78.53
2017-11-05T01:42:41.992Z,78.88
2017-11-05T01:45:09.481Z,78.39
2017-11-05T01:47:36.957Z,78.61
2017-11-05T01:50:04.693Z,78.49
2017-11-05T01:52:33.497Z,78.49
2017-11-05T01:55:01.835Z,78.57
2017-11-05T01:57:29.304Z,78.47
2017-11-05T01:59:56.763Z,78.57
2017-11-05T02:02:24.223Z,78.63
2017-11-05T02:04:51.969Z,78.63
2017-11-05T02:07:19.501Z,78.74
2017-11-05T02:09:47.021Z,78.63
2017-11-05T02:12:14.511Z,78.90
2017-11-05T02:14:42.098Z,78.75
2017-11-05T02:17:10.682Z,78.74
2017-11-05T02:19:38.514Z,79.04
2017-11-05T02:22:05.981Z,79.15
2017-11-05T02:24:33.431Z,79.02
2017-11-05T02:27:00.965Z,79.08
2017-11-05T02:29:28.518Z,79.10
2017-11-05T02:31:56.049Z,79.08
2017-11-05T02:34:23.515Z,79.07
2017-11-05T02:36:51.025Z,79.24
2017-11-05T02:39:18.525Z,79.12
2017-11-05T02:41:46.035Z,79.00
2017-11-05T02:44:13.534Z,78.87
2017-11-05T02:46:41.316Z,79.15
2017-11-05T02:49:10.461Z,79.14
2017-11-05T02:51:38.940Z,79.00
2017-11-05T02:54:06.419Z,79.42
2017-11-05T02:56:33.881Z,78.65
2017-11-05T02:59:01.323Z,79.00
2017-11-05T03:01:28.784Z,79.15
2017-11-05T03:03:56.277Z,78.90
2017-11-05T03:06:23.775Z,79.09
2017-11-05T03:08:51.215Z,78.91
2017-11-05T03:11:18.702Z,78.63
2017-11-05T03:13:46.204Z,78.87
2017-11-05T03:16:13.680Z,78.77
2017-11-05T03:18:41.166Z,78.58
2017-11-05T03:21:08.624Z,78.80
2017-11-05T03:23:36.175Z,79.12
2017-11-05T03:26:03.641Z,79.12
2017-11-05T03:28:31.120Z,78.73
2017-11-05T03:30:58.631Z,79.06
2017-11-05T03:33:26.130Z,79.38
2017-11-05T03:35:53.606Z,79.20
2017-11-05T03:38:21.124Z,78.88
2017-11-05T03:40:48.580Z,79.15
2017-11-05T03:43:16.065Z,78.76
2017-11-05T03:45:43.547Z,78.49
2017-11-05T03:48:11.030Z,78.67
2017-11-05T03:50:43.472Z,78.79
2017-11-05T03:53:10.949Z,79.03
2017-11-05T03:55:38.507Z,78.96
2017-11-05T03:58:06.051Z,78.70
2017-11-05T04:00:33.555Z,78.90
2017-11-05T04:03:01.108Z,79.36
2017-11-05T04:05:28.590Z,79.50
2017-11-05T04:07:56.110Z,78.88
2017-11-05T04:10:23.586Z,79.11
2017-11-05T04:12:51.099Z,79.32
2017-11-05T04:15:18.601Z,79.12
2017-11-05T04:17:46.070Z,79.24
2017-11-05T04:20:13.592Z,79.15
2017-11-05T04:22:41.085Z,78.75
2017-11-05T04:25:08.559Z,78.95
2017-11-05T04:27:36.070Z,78.97
2017-11-05T04:30:03.543Z,79.03
2017-11-05T04:32:31.012Z,79.16
2017-11-05T04:34:58.476Z,79.14
2017-11-05T04:37:25.956Z,79.48
2017-11-05T04:39:53.477Z,79.26
2017-11-05T04:42:21.332Z,79.35
2017-11-05T04:44:48.811Z,79.42
2017-11-05T04:47:16.297Z,79.35
2017-11-05T04:49:43.792Z,79.58
2017-11-05T04:52:11.735Z,79.65
2017-11-05T04:54:40.893Z,79.52
2017-11-05T04:57:08.357Z,79.81
2017-11-05T04:59:36.788Z,79.75
2017-11-05T05:02:05.128Z,80.00
2017-11-05T05:04:32.567Z,80.04
2017-11-05T05:07:00.033Z,79.71
2017-11-05T05:09:27.484Z,79.91
2017-11-05T05:11:54.950Z,79.83
2017-11-05T05:14:22.464Z,79.95
2017-11-05T05:16:49.994Z,80.14
2017-11-05T05:19:17.791Z,79.92
2017-11-05T05:21:45.279Z,79.90
2017-11-05T05:24:13.183Z,79.85
2017-11-05T05:26:40.684Z,79.88
2017-11-05T05:29:08.188Z,79.90
2017-11-05T05:31:35.663Z,80.02
2017-11-05T05:34:03.146Z,79.67
2017-11-05T05:36:30.670Z,79.75
2017-11-05T05:38:58.180Z,80.21
2017-11-05T05:41:25.674Z,79.85
2017-11-05T05:43:53.151Z,80.00
2017-11-05T05:46:20.686Z,79.85
2017-11-05T05:48:48.150Z,79.70
2017-11-05T05:51:15.664Z,79.59
2017-11-05T05:53:43.133Z,79.77
2017-11-05T05:56:10.612Z,79.88
2017-11-05T05:58:38.168Z,79.85
2017-11-05T06:01:05.703Z,79.94
2017-11-05T06:03:33.187Z,79.77
2017-11-05T06:06:00.651Z,79.79
2017-11-05T06:08:28.387Z,79.57
2017-11-05T06:10:55.900Z,79.68
2017-11-05T06:13:23.404Z,79.94
2017-11-05T06:15:50.893Z,79.77
2017-11-05T06:18:18.406Z,79.64
2017-11-05T06:20:50.984Z,79.41
2017-11-05T06:23:18.470Z,79.27
2017-11-05T06:25:46.235Z,79.13
2017-11-05T06:28:13.708Z,79.23
2017-11-05T06:30:41.165Z,79.13
2017-11-05T06:33:08.668Z,78.88
2017-11-05T06:35:36.134Z,78.86
2017-11-05T06:38:03.591Z,79.10
2017-11-05T06:40:31.312Z,78.60
2017-11-05T06:42:59.039Z,78.44
2017-11-05T06:45:26.546Z,78.56
2017-11-05T06:47:54.021Z,78.61
2017-11-05T06:50:21.532Z,78.63
2017-11-05T06:52:49.010Z,78.44
2017-11-05T06:55:16.536Z,78.42
2017-11-05T06:57:44.060Z,78.34
2017-11-05T07:00:11.932Z,78.62
2017-11-05T07:02:39.415Z,78.49
2017-11-05T07:05:06.953Z,78.22
2017-11-05T07:07:34.436Z,78.20
2017-11-05T07:10:01.934Z,78.48
2017-11-05T07:12:29.415Z,78.48
2017-11-05T07:14:56.948Z,78.88
2017-11-05T07:17:24.408Z,78.56
2017-11-05T07:19:51.902Z,78.62
2017-11-05T07:22:19.437Z,78.32
2017-11-05T07:24:46.911Z,78.16
2017-11-05T07:27:14.380Z,78.52
2017-11-05T07:29:41.875Z,78.47
2017-11-05T07:32:09.379Z,78.34
2017-11-05T07:34:36.928Z,78.43
2017-11-05T07:37:04.413Z,78.78
2017-11-05T07:39:32.908Z,78.91
2017-11-05T07:42:00.461Z,79.07
2017-11-05T07:44:27.931Z,79.27
2017-11-05T07:46:55.488Z,79.38
2017-11-05T07:49:23.109Z,79.62
2017-11-05T07:51:50.656Z,79.74
2017-11-05T07:54:18.216Z,79.79
2017-11-05T07:56:45.727Z,79.97
2017-11-05T07:59:13.248Z,80.12
2017-11-05T08:01:40.711Z,80.07
2017-11-05T08:04:08.202Z,79.99
2017-11-05T08:06:35.703Z,80.44
2017-11-05T08:09:03.279Z,80.50
2017-11-05T08:11:30.813Z,80.46
2017-11-05T08:13:58.297Z,80.80
2017-11-05T08:16:26.064Z,80.54
2017-11-05T08:18:53.554Z,80.88
2017-11-05T08:21:21.107Z,80.76
2017-11-05T08:23:48.556Z,80.69
2017-11-05T08:26:16.026Z,80.14
2017-11-05T08:28:43.537Z,80.14
2017-11-05T08:31:11.052Z,80.28
2017-11-05T08:33:38.571Z,80.44
2017-11-05T08:36:06.027Z,80.24
2017-11-05T08:38:33.541Z,80.11
2017-11-05T08:41:01.043Z,79.98
2017-11-05T08:43:28.537Z,79.87
2017-11-05T08:45:56.068Z,79.96
2017-11-05T08:48:23.588Z,79.81
2017-11-05T08:50:51.117Z,79.86
2017-11-05T08:53:18.616Z,79.64
2017-11-05T08:55:46.164Z,79.11
2017-11-05T08:58:13.694Z,79.09
2017-11-05T09:00:41.250Z,78.75
2017-11-05T09:03:08.792Z,78.72
2017-11-05T09:05:36.348Z,78.55
2017-11-05T09:08:03.890Z,78.55
2017-11-05T09:10:31.395Z,78.18
2017-11-05T09:12:58.879Z,78.53
2017-11-05T09:15:26.479Z,78.12
2017-11-05T09:17:54.003Z,78.07
2017-11-05T09:20:21.586Z,77.47
2017-11-05T09:22:49.852Z,77.26
2017-11-05T09:25:17.371Z,75.72
2017-11-05T09:27:44.851Z,75.49
2017-11-05T09:30:12.327Z,74.69
2017-11-05T09:32:39.890Z,74.18
2017-11-05T09:35:07.443Z,73.19
2017-11-05T09:37:34.959Z,72.91
2017-11-05T09:40:02.512Z,73.19
2017-11-05T09:42:30.096Z,73.12
2017-11-05T09:44:57.654Z,73.46
2017-11-05T09:47:25.216Z,72.78
2017-11-05T09:49:52.699Z,73.00
2017-11-05T09:52:20.261Z,72.84
2017-11-05T09:54:47.810Z,72.45
2017-11-05T09:57:15.378Z,71.94
2017-11-05T09:59:42.910Z,72.45
2017-11-05T10:02:10.383Z,70.36
2017-11-05T10:04:37.956Z,70.56
2017-11-05T10:07:05.472Z,69.85
2017-11-05T10:09:33.083Z,69.34
2017-11-05T10:12:00.619Z,68.15
2017-11-05T10:14:28.115Z,68.71
2017-11-05T10:16:55.571Z,67.99
2017-11-05T10:19:23.095Z,68.68
2017-11-05T10:21:50.566Z,66.92
2017-11-05T10:24:18.176Z,66.92
2017-11-05T10:26:45.650Z,66.45
2017-11-05T10:29:13.225Z,66.66
2017-11-05T10:31:40.723Z,67.01
2017-11-05T10:34:08.275Z,66.67
2017-11-05T10:36:35.769Z,66.48
2017-11-05T10:39:03.353Z,66.72
2017-11-05T10:41:30.831Z,66.90
2017-11-05T10:43:58.375Z,66.43
2017-11-05T10:46:25.928Z,66.44
2017-11-05T10:48:53.412Z,66.28
2017-11-05T10:51:20.965Z,66.40
2017-11-05T10:53:48.524Z,66.71
2017-11-05T10:56:16.089Z,66.75
2017-11-05T10:58:46.465Z,67.26
2017-11-05T11:01:14.019Z,67.11
2017-11-05T11:03:41.569Z,67.68
2017-11-05T11:06:09.921Z,68.14
2017-11-05T11:08:37.762Z,68.39
2017-11-05T11:11:05.286Z,68.82
2017-11-05T11:13:32.851Z,68.73
2017-11-05T11:16:00.416Z,68.34
2017-11-05T11:18:27.938Z,68.79
2017-11-05T11:20:55.428Z,68.41
2017-11-05T11:23:22.890Z,69.00
2017-11-05T11:25:50.420Z,69.14
2017-11-05T11:28:18.023Z,68.59
2017-11-05T11:30:45.578Z,68.23
2017-11-05T11:33:13.285Z,68.08
2017-11-05T11:35:40.772Z,68.06
2017-11-05T11:38:08.531Z,68.43
2017-11-05T11:40:36.007Z,68.36
2017-11-05T11:43:03.464Z,68.85
2017-11-05T11:45:30.987Z,68.91
2017-11-05T11:47:58.502Z,68.88
2017-11-05T11:50:25.972Z,69.20
2017-11-05T11:52:53.800Z,69.60
2017-11-05T11:55:21.297Z,69.03
2017-11-05T11:57:48.746Z,69.23
2017-11-05T12:00:16.247Z,69.37
2017-11-05T12:02:43.735Z,69.43
2017-11-05T12:05:11.220Z,69.58
2017-11-05T12:07:38.716Z,69.58
2017-11-05T12:10:06.202Z,69.69
2017-11-05T12:12:33.723Z,69.66
2017-11-05T12:15:01.298Z,69.71
2017-11-05T12:17:28.801Z,69.57
2017-11-05T12:19:57.161Z,69.55
2017-11-05T12:22:24.893Z,69.55
2017-11-05T12:24:52.485Z,70.00
2017-11-05T12:27:20.023Z,69.80
2017-11-05T12:29:47.596Z,69.43
2017-11-05T12:32:15.114Z,69.30
2017-11-05T12:34:42.617Z,69.18
2017-11-05T12:37:10.120Z,69.01
2017-11-05T12:39:37.697Z,68.95
2017-11-05T12:42:05.222Z,69.27
2017-11-05T12:44:32.767Z,69.10
2017-11-05T12:47:00.374Z,69.17
2017-11-05T12:49:27.980Z,69.27
2017-11-05T12:51:55.495Z,69.15
2017-11-05T12:54:23.077Z,69.30
2017-11-05T12:56:50.573Z,69.77
2017-11-05T12:59:18.138Z,69.98
2017-11-05T13:01:45.679Z,70.27
2017-11-05T13:04:13.188Z,70.71
2017-11-05T13:06:40.803Z,71.71
2017-11-05T13:09:08.398Z,72.33
2017-11-05T13:11:35.892Z,72.71
2017-11-05T13:14:03.445Z,73.12
2017-11-05T13:16:30.951Z,73.57
2017-11-05T13:18:59.379Z,74.35
2017-11-05T13:21:26.889Z,75.18
2017-11-05T13:23:54.406Z,75.74
2017-11-05T13:26:21.896Z,76.17
2017-11-05T13:28:49.436Z,76.98
2017-11-05T13:31:17.013Z,77.45
2017-11-05T13:33:44.688Z,78.14
2017-11-05T13:36:12.219Z,78.58
2017-11-05T13:38:39.703Z,78.89
2017-11-05T13:41:07.228Z,79.41
2017-11-05T13:43:34.774Z,80.22
2017-11-05T13:46:02.258Z,80.33
2017-11-05T13:48:29.862Z,80.91
2017-11-05T13:50:57.376Z,81.21
2017-11-05T13:53:24.883Z,81.81
2017-11-05T13:55:52.431Z,82.33
2017-11-05T13:58:19.959Z,82.46
2017-11-05T14:00:47.495Z,82.88
2017-11-05T14:03:15.054Z,83.64
2017-11-05T14:05:42.687Z,83.84
2017-11-05T14:08:10.525Z,84.17
2017-11-05T14:10:38.028Z,84.31
2017-11-05T14:13:05.591Z,85.14
2017-11-05T14:15:33.167Z,85.36
2017-11-05T14:18:00.785Z,85.21
2017-11-05T14:20:28.375Z,85.00
2017-11-05T14:22:56.017Z,84.82
2017-11-05T14:25:23.712Z,85.27
2017-11-05T14:27:51.236Z,85.65
2017-11-05T14:30:18.707Z,85.36
2017-11-05T14:32:46.209Z,85.85
2017-11-05T14:35:14.511Z,86.01
2017-11-05T14:37:42.011Z,85.75
2017-11-05T14:40:09.502Z,85.95
2017-11-05T14:42:36.971Z,86.07
2017-11-05T14:45:04.439Z,86.09
2017-11-05T14:47:31.947Z,85.97
2017-11-05T14:49:59.545Z,86.10
2017-11-05T14:52:27.046Z,86.18
2017-11-05T14:54:54.583Z,86.33
2017-11-05T14:57:22.100Z,86.45
2017-11-05T14:59:49.597Z,86.53
2017-11-05T15:02:17.148Z,86.71
2017-11-05T15:04:44.704Z,86.76
2017-11-05T15:07:12.199Z,86.86
2017-11-05T15:09:39.681Z,86.96
2017-11-05T15:12:07.189Z,86.79
2017-11-05T15:14:34.710Z,86.68
2017-11-05T15:17:02.185Z,87.02
2017-11-05T15:19:29.714Z,86.78
2017-11-05T15:21:57.256Z,86.64
2017-11-05T15:24:24.807Z,86.57
2017-11-05T15:26:52.309Z,86.80
2017-11-05T15:29:19.802Z,86.96
2017-11-05T15:31:47.336Z,87.17
2017-11-05T15:34:14.860Z,87.30
2017-11-05T15:36:42.353Z,87.36
2017-11-05T15:39:09.833Z,87.25
2017-11-05T15:41:37.356Z,86.93
2017-11-05T15:44:04.852Z,86.79
2017-11-05T15:46:32.406Z,86.67
2017-11-05T15:48:59.960Z,86.58
2017-11-05T15:51:27.472Z,86.86
2017-11-05T15:53:54.976Z,86.73
2017-11-05T15:56:22.469Z,86.93
2017-11-05T15:58:50.301Z,87.12
2017-11-05T16:01:17.990Z,86.92
2017-11-05T16:03:45.543Z,87.23
2017-11-05T16:06:13.172Z,87.10
2017-11-05T16:08:40.654Z,84.75
2017-11-05T16:11:08.149Z,84.30
2017-11-05T16:13:35.647Z,84.73
2017-11-05T16:16:03.220Z,84.66
2017-11-05T16:18:30.725Z,84.84
2017-11-05T16:20:58.344Z,84.59
2017-11-05T16:23:25.836Z,84.14
2017-11-05T16:25:53.354Z,84.33
2017-11-05T16:28:20.941Z,84.62
2017-11-05T16:30:48.497Z,85.07
2017-11-05T16:33:16.009Z,84.83
2017-11-05T16:35:43.528Z,85.49
2017-11-05T16:38:10.994Z,85.71
2017-11-05T16:40:38.528Z,86.02
2017-11-05T16:43:06.078Z,86.11
2017-11-05T16:45:33.601Z,86.11
2017-11-05T16:48:01.145Z,85.79
2017-11-05T16:50:28.709Z,85.52
2017-11-05T16:52:56.206Z,85.17
2017-11-05T16:55:23.735Z,85.79
2017-11-05T16:57:51.519Z,85.09
2017-11-05T17:00:19.023Z,85.21
2017-11-05T17:02:46.515Z,85.05
2017-11-05T17:05:14.056Z,84.29
2017-11-05T17:07:41.645Z,84.44
2017-11-05T17:10:09.182Z,85.07
2017-11-05T17:12:36.780Z,85.43
2017-11-05T17:15:04.334Z,85.34
2017-11-05T17:17:31.857Z,85.17
2017-11-05T17:19:59.679Z,85.33
2017-11-05T17:22:27.323Z,85.11
2017-11-05T17:24:55.834Z,85.24
2017-11-05T17:27:23.333Z,85.34
2017-11-05T17:29:50.860Z,85.30
2017-11-05T17:32:18.373Z,85.37
2017-11-05T17:34:45.850Z,85.28
2017-11-05T17:37:13.410Z,84.99
2017-11-05T17:39:41.550Z,85.44
2017-11-05T17:42:09.205Z,85.79
2017-11-05T17:44:36.689Z,85.02
2017-11-05T17:47:04.187Z,85.21
2017-11-05T17:49:31.663Z,85.67
2017-11-05T17:51:59.183Z,85.56
2017-11-05T17:54:26.698Z,85.85
2017-11-05T17:56:54.216Z,85.36
2017-11-05T17:59:21.990Z,84.27
2017-11-05T18:01:49.602Z,84.52
2017-11-05T18:04:17.354Z,84.45
2017-11-05T18:06:44.880Z,84.25
2017-11-05T18:09:12.497Z,83.84
2017-11-05T18:11:40.032Z,84.16
2017-11-05T18:14:07.518Z,83.89
2017-11-05T18:16:35.039Z,84.25
2017-11-05T18:19:03.598Z,84.03
2017-11-05T18:21:31.178Z,83.77
2017-11-05T18:23:58.692Z,83.70
2017-11-05T18:26:26.169Z,83.75
2017-11-05T18:28:53.984Z,83.99
2017-11-05T18:31:21.566Z,83.84
2017-11-05T18:33:49.107Z,83.89
2017-11-05T18:36:16.584Z,84.27
2017-11-05T18:38:44.144Z,84.19
2017-11-05T18:41:11.631Z,84.10
2017-11-05T18:43:39.132Z,84.35
2017-11-05T18:46:06.653Z,84.79
2017-11-05T18:48:34.152Z,84.92
2017-11-05T18:51:01.681Z,85.21
2017-11-05T18:53:29.215Z,85.57
2017-11-05T18:55:56.769Z,85.53
2017-11-05T18:58:24.379Z,85.61
2017-11-05T19:00:51.961Z,85.59
2017-11-05T19:03:20.148Z,85.62
2017-11-05T19:05:47.657Z,85.57
2017-11-05T19:08:15.210Z,85.77
2017-11-05T19:10:42.821Z,85.76
2017-11-05T19:13:10.378Z,86.21
2017-11-05T19:15:37.925Z,85.98
2017-11-05T19:18:05.428Z,86.04
2017-11-05T19:20:32.984Z,86.08
2017-11-05T19:23:00.696Z,86.08
2017-11-05T19:25:28.187Z,86.13
2017-11-05T19:27:55.715Z,86.06
2017-11-05T19:30:23.221Z,85.82
2017-11-05T19:32:50.854Z,86.02
2017-11-05T19:35:18.331Z,85.71
2017-11-05T19:37:45.821Z,85.35
2017-11-05T19:40:13.471Z,85.28
2017-11-05T19:42:41.099Z,85.08
2017-11-05T19:45:09.529Z,85.53
2017-11-05T19:47:39.397Z,85.51
2017-11-05T19:50:06.975Z,85.67
2017-11-05T19:52:34.469Z,85.33
2017-11-05T19:55:01.988Z,85.45
2017-11-05T19:57:29.544Z,85.43
2017-11-05T19:59:57.197Z,85.41
2017-11-05T20:02:24.805Z,84.95
2017-11-05T20:04:52.326Z,85.12
2017-11-05T20:07:19.884Z,85.30
2017-11-05T20:09:47.370Z,84.75
2017-11-05T20:12:15.030Z,84.53
2017-11-05T20:14:42.505Z,84.46
2017-11-05T20:17:10.142Z,84.54
2017-11-05T20:19:37.685Z,84.44
2017-11-05T20:22:05.207Z,84.26
2017-11-05T20:24:32.778Z,83.93
2017-11-05T20:27:00.274Z,84.37
2017-11-05T20:29:28.045Z,84.21
2017-11-05T20:31:55.600Z,84.31
2017-11-05T20:34:23.191Z,84.11
2017-11-05T20:36:50.889Z,83.71
2017-11-05T20:39:19.013Z,83.73
2017-11-05T20:41:46.519Z,83.60
2017-11-05T20:44:14.005Z,83.55
2017-11-05T20:46:41.533Z,83.53
2017-11-05T20:49:09.112Z,83.23
2017-11-05T20:51:36.590Z,83.29
2017-11-05T20:54:04.168Z,83.62
2017-11-05T20:56:31.797Z,84.11
2017-11-05T20:58:59.382Z,84.30
2017-11-05T21:01:26.943Z,83.91
2017-11-05T21:03:55.421Z,83.87
2017-11-05T21:06:22.950Z,83.87
2017-11-05T21:08:50.556Z,84.30
2017-11-05T21:11:18.090Z,83.94
2017-11-05T21:13:45.540Z,83.86
2017-11-05T21:16:13.022Z,83.75
2017-11-05T21:18:40.520Z,83.90
2017-11-05T21:21:12.994Z,84.19
2017-11-05T21:23:40.522Z,84.02
2017-11-05T21:26:08.011Z,83.76
2017-11-05T21:28:35.523Z,84.08
2017-11-05T21:31:03.019Z,84.28
2017-11-05T21:33:30.761Z,84.34
2017-11-05T21:35:58.280Z,84.47
2017-11-05T21:38:25.805Z,84.43
2017-11-05T21:40:53.280Z,84.23
2017-11-05T21:43:20.758Z,84.63
2017-11-05T21:45:48.306Z,84.87
2017-11-05T21:48:15.798Z,84.86
2017-11-05T21:50:43.299Z,85.00
2017-11-05T21:53:10.805Z,84.94
2017-11-05T21:55:38.296Z,84.70
2017-11-05T21:58:05.765Z,84.76
2017-11-05T22:00:33.259Z,85.01
2017-11-05T22:03:00.768Z,85.15
2017-11-05T22:05:28.314Z,85.07
2017-11-05T22:07:55.872Z,85.05
2017-11-05T22:10:23.360Z,84.99
2017-11-05T22:12:51.053Z,84.86
2017-11-05T22:15:18.549Z,84.78
2017-11-05T22:17:46.289Z,84.72
2017-11-05T22:20:13.889Z,84.59
2017-11-05T22:22:41.521Z,84.78
2017-11-05T22:25:09.061Z,84.38
2017-11-05T22:27:36.583Z,84.43
2017-11-05T22:30:04.383Z,84.21
2017-11-05T22:32:31.879Z,84.17
2017-11-05T22:34:59.409Z,84.27
2017-11-05T22:37:26.993Z,84.12
2017-11-05T22:39:54.500Z,84.30
2017-11-05T22:42:22.147Z,84.17
2017-11-05T22:44:49.700Z,83.91
2017-11-05T22:47:18.630Z,84.11
2017-11-05T22:49:46.076Z,84.31
2017-11-05T22:52:13.595Z,84.37
2017-11-05T22:54:41.111Z,84.32
2017-11-05T22:57:08.629Z,84.41
2017-11-05T22:59:37.146Z,84.46
2017-11-05T23:02:05.331Z,84.45
2017-11-05T23:04:33.944Z,84.71
2017-11-05T23:07:01.531Z,84.81
2017-11-05T23:09:28.999Z,84.79
2017-11-05T23:11:56.570Z,84.62
2017-11-05T23:14:25.118Z,84.09
2017-11-05T23:16:52.727Z,83.78
2017-11-05T23:19:20.340Z,83.87
2017-11-05T23:21:48.409Z,83.79
2017-11-05T23:24:15.961Z,83.76
2017-11-05T23:26:43.517Z,83.65
2017-11-05T23:29:11.062Z,83.55
2017-11-05T23:31:39.833Z,83.71
2017-11-05T23:34:07.357Z,83.93
2017-11-05T23:36:34.992Z,83.96
2017-11-05T23:39:02.539Z,84.04
2017-11-05T23:41:30.071Z,84.00
2017-11-05T23:43:57.587Z,84.04
2017-11-05T23:46:25.159Z,83.81
2017-11-05T23:48:52.741Z,83.48
2017-11-05T23:51:20.407Z,83.56
2017-11-05T23:53:51.024Z,83.27
2017-11-05T23:56:18.625Z,83.59
2017-11-05T23:58:46.126Z,83.55
